Time,TemperatureF,DewpointF,PressureIn,WindDirection,WindDirectionDegrees,WindSpeedMPH,WindSpeedGustMPH,Humidity,HourlyPrecipIn,Conditions,Clouds,dailyrainin,SoftwareType,DateUTC
2013-05-21 13:11:00,78.6,63.6,30.09,West,277,5.0,5.0,60,0.00,,,0.01,Wunderground v.1.15,2013-05-21 17:11:00,
2013-05-21 13:12:00,78.6,62.6,30.09,West,276,5.0,5.0,58,0.00,,,0.01,Wunderground v.1.15,2013-05-21 17:12:00,
2013-05-21 13:13:00,78.5,62.5,30.09,North,5,5.0,5.0,58,0.00,,,0.01,Wunderground v.1.15,2013-05-21 17:13:00,
2013-05-21 13:16:00,78.4,62.9,30.09,NNW,331,5.0,5.0,59,0.00,,,0.01,Wunderground v.1.15,2013-05-21 17:16:00,
2013-05-21 13:22:00,78.4,61.9,30.09,NE,45,4.0,5.0,57,0.00,,,0.01,Wunderground v.1.15,2013-05-21 17:22:00,
2013-05-21 13:27:00,78.9,62.9,30.09,SSW,194,3.0,5.0,58,0.00,,,0.01,Wunderground v.1.15,2013-05-21 17:27:00,
2013-05-21 13:33:00,79.8,63.7,30.08,NNW,341,2.0,4.0,58,0.00,,,0.01,Wunderground v.1.15,2013-05-21 17:33:00,
2013-05-21 13:38:00,80.0,62.9,30.08,SSW,208,2.0,4.0,56,0.00,,,0.01,Wunderground v.1.15,2013-05-21 17:38:00,
2013-05-21 13:44:00,80.4,63.3,30.08,NW,313,2.0,6.0,56,0.00,,,0.01,Wunderground v.1.15,2013-05-21 17:44:00,
2013-05-21 13:50:00,80.4,61.7,30.08,WNW,284,4.0,7.0,53,0.00,,,0.01,Wunderground v.1.15,2013-05-21 17:50:00,
2013-05-21 13:55:00,80.0,62.9,30.07,WNW,293,5.0,7.0,56,0.00,,,0.01,Wunderground v.1.15,2013-05-21 17:55:00,
2013-05-21 14:01:00,80.2,59.3,30.07,ENE,61,4.0,10.0,49,0.00,,,0.01,Wunderground v.1.15,2013-05-21 18:01:00,
2013-05-21 14:06:00,80.5,66.3,30.07,SSE,163,3.0,10.0,62,0.00,,,0.01,Wunderground v.1.15,2013-05-21 18:06:00,
2013-05-21 14:11:00,79.3,67.0,30.07,East,89,5.0,10.0,66,0.00,,,0.01,Wunderground v.1.15,2013-05-21 18:11:00,
2013-05-21 14:17:00,79.1,65.4,30.07,SSE,155,6.0,10.0,63,0.00,,,0.01,Wunderground v.1.15,2013-05-21 18:17:00,
2013-05-21 14:22:00,79.1,66.3,30.06,SSE,161,5.0,10.0,65,0.00,,,0.01,Wunderground v.1.15,2013-05-21 18:22:00,
2013-05-21 14:28:00,79.3,67.0,30.06,SE,142,5.0,10.0,66,0.00,,,0.01,Wunderground v.1.15,2013-05-21 18:28:00,
2013-05-21 14:34:00,79.1,66.8,30.06,SSE,149,6.0,10.0,66,0.00,,,0.01,Wunderground v.1.15,2013-05-21 18:34:00,
2013-05-21 14:39:00,78.9,64.8,30.06,SE,137,5.0,10.0,62,0.00,,,0.01,Wunderground v.1.15,2013-05-21 18:39:00,
2013-05-21 14:45:00,78.4,65.2,30.06,SE,126,4.0,10.0,64,0.00,,,0.01,Wunderground v.1.15,2013-05-21 18:45:00,
2013-05-21 14:50:00,78.1,65.4,30.06,SSE,158,4.0,10.0,65,0.00,,,0.01,Wunderground v.1.15,2013-05-21 18:50:00,
2013-05-21 14:56:00,78.7,64.1,30.06,SSE,149,4.0,10.0,61,0.00,,,0.01,Wunderground v.1.15,2013-05-21 18:56:00,
2013-05-21 15:01:00,79.3,67.0,30.05,SSE,149,4.0,10.0,66,0.00,,,0.01,Wunderground v.1.15,2013-05-21 19:01:00,
2013-05-21 15:06:00,79.8,67.9,30.05,ESE,114,4.0,10.0,67,0.00,,,0.01,Wunderground v.1.15,2013-05-21 19:06:00,
2013-05-21 15:11:00,79.9,65.7,30.05,ESE,107,5.0,10.0,62,0.00,,,0.01,Wunderground v.1.15,2013-05-21 19:11:00,
2013-05-21 15:17:00,79.8,66.1,30.05,ESE,102,5.0,10.0,63,0.00,,,0.01,Wunderground v.1.15,2013-05-21 19:17:00,
2013-05-21 15:22:00,79.6,65.9,30.04,SSE,167,6.0,10.0,63,0.00,,,0.01,Wunderground v.1.15,2013-05-21 19:22:00,
2013-05-21 15:27:00,79.8,67.0,30.04,SSE,155,5.0,10.0,65,0.00,,,0.01,Wunderground v.1.15,2013-05-21 19:27:00,
2013-05-21 15:33:00,79.6,66.8,30.04,SSE,161,4.0,10.0,65,0.00,,,0.01,Wunderground v.1.15,2013-05-21 19:33:00,
2013-05-21 15:38:00,79.5,66.3,30.04,SSE,163,5.0,10.0,64,0.00,,,0.01,Wunderground v.1.15,2013-05-21 19:38:00,
2013-05-21 15:44:00,79.7,66.9,30.04,SSE,161,5.0,10.0,65,0.00,,,0.01,Wunderground v.1.15,2013-05-21 19:44:00,
2013-05-21 15:49:00,79.9,66.6,30.03,SSE,154,5.0,10.0,64,0.00,,,0.01,Wunderground v.1.15,2013-05-21 19:49:00,
2013-05-21 15:54:00,80.2,65.5,30.03,SSE,147,6.0,10.0,61,0.00,,,0.01,Wunderground v.1.15,2013-05-21 19:54:00,
2013-05-21 16:00:00,79.7,66.0,30.03,South,171,5.0,5.0,63,0.00,,,0.01,Wunderground v.1.15,2013-05-21 20:00:00,
2013-05-21 16:06:00,79.3,66.1,30.03,SSW,194,4.0,10.0,64,0.00,,,0.01,Wunderground v.1.15,2013-05-21 20:06:00,
2013-05-21 16:12:00,78.7,65.9,30.02,SE,139,5.0,10.0,65,0.00,,,0.01,Wunderground v.1.15,2013-05-21 20:12:00,
2013-05-21 16:18:00,78.8,65.6,30.02,SSE,153,5.0,10.0,64,0.00,,,0.01,Wunderground v.1.15,2013-05-21 20:18:00,
2013-05-21 16:23:00,78.6,66.3,30.02,SSE,155,5.0,10.0,66,0.00,,,0.01,Wunderground v.1.15,2013-05-21 20:23:00,
2013-05-21 16:28:00,78.3,66.0,30.02,SSE,159,5.0,10.0,66,0.00,,,0.01,Wunderground v.1.15,2013-05-21 20:28:00,
2013-05-21 16:34:00,77.7,65.9,30.02,SSW,211,7.0,10.0,67,0.00,,,0.01,Wunderground v.1.15,2013-05-21 20:34:00,
2013-05-21 16:39:00,77.6,66.6,30.02,SSW,198,7.0,10.0,69,0.00,,,0.01,Wunderground v.1.15,2013-05-21 20:39:00,
2013-05-21 16:45:00,78.0,67.0,30.02,SE,146,5.0,10.0,69,0.00,,,0.01,Wunderground v.1.15,2013-05-21 20:45:00,
2013-05-21 16:50:00,78.7,67.2,30.02,SSW,204,5.0,10.0,68,0.00,,,0.01,Wunderground v.1.15,2013-05-21 20:50:00,
2013-05-21 16:55:00,78.7,66.8,30.02,SW,228,7.0,12.0,67,0.00,,,0.01,Wunderground v.1.15,2013-05-21 20:55:00,
2013-05-21 17:01:00,78.7,66.8,30.02,SW,224,8.0,10.0,67,0.00,,,0.01,Wunderground v.1.15,2013-05-21 21:01:00,
2013-05-21 17:07:00,78.8,66.9,30.01,SW,223,7.0,10.0,67,0.00,,,0.01,Wunderground v.1.15,2013-05-21 21:07:00,
2013-05-21 17:12:00,79.0,66.7,30.02,SSW,203,7.0,10.0,66,0.00,,,0.01,Wunderground v.1.15,2013-05-21 21:12:00,
2013-05-21 17:17:00,79.3,66.1,30.02,SSE,161,5.0,10.0,64,0.00,,,0.01,Wunderground v.1.15,2013-05-21 21:17:00,
2013-05-21 17:23:00,79.1,65.9,30.02,SSE,152,5.0,10.0,64,0.00,,,0.01,Wunderground v.1.15,2013-05-21 21:23:00,
2013-05-21 17:28:00,78.6,66.3,30.02,SSW,198,6.0,10.0,66,0.00,,,0.01,Wunderground v.1.15,2013-05-21 21:28:00,
2013-05-21 17:34:00,78.5,66.2,30.02,SW,236,6.0,10.0,66,0.00,,,0.01,Wunderground v.1.15,2013-05-21 21:34:00,
2013-05-21 17:39:00,78.4,65.7,30.01,South,187,7.0,10.0,65,0.00,,,0.01,Wunderground v.1.15,2013-05-21 21:39:00,
2013-05-21 17:45:00,78.0,65.7,30.01,SSW,212,8.0,10.0,66,0.00,,,0.01,Wunderground v.1.15,2013-05-21 21:45:00,
2013-05-21 17:50:00,77.9,66.5,30.01,South,169,7.0,7.0,68,0.00,,,0.01,Wunderground v.1.15,2013-05-21 21:50:00,
2013-05-21 17:56:00,77.9,66.5,30.01,SSW,200,5.0,10.0,68,0.00,,,0.01,Wunderground v.1.15,2013-05-21 21:56:00,
2013-05-21 18:01:00,78.0,66.2,30.01,SSW,193,5.0,10.0,67,0.00,,,0.01,Wunderground v.1.15,2013-05-21 22:01:00,
2013-05-21 18:06:00,78.1,66.2,30.01,SSW,202,5.0,10.0,67,0.00,,,0.01,Wunderground v.1.15,2013-05-21 22:06:00,
2013-05-21 18:11:00,78.5,66.2,30.01,WSW,247,5.0,10.0,66,0.00,,,0.01,Wunderground v.1.15,2013-05-21 22:11:00,
2013-05-21 18:17:00,78.4,66.5,30.01,SW,215,6.0,10.0,67,0.00,,,0.01,Wunderground v.1.15,2013-05-21 22:17:00,
2013-05-21 18:22:00,78.4,67.4,30.01,SW,229,6.0,10.0,69,0.00,,,0.01,Wunderground v.1.15,2013-05-21 22:22:00,
2013-05-21 18:28:00,78.1,66.7,30.01,SW,235,5.0,10.0,68,0.00,,,0.01,Wunderground v.1.15,2013-05-21 22:28:00,
2013-05-21 18:33:00,78.3,66.0,30.00,SSE,147,5.0,10.0,66,0.00,,,0.01,Wunderground v.1.15,2013-05-21 22:33:00,
2013-05-21 18:38:00,78.2,66.3,30.00,South,178,5.0,10.0,67,0.00,,,0.01,Wunderground v.1.15,2013-05-21 22:38:00,
2013-05-21 18:44:00,78.0,65.3,30.00,SSE,153,5.0,10.0,65,0.00,,,0.01,Wunderground v.1.15,2013-05-21 22:44:00,
2013-05-21 18:49:00,77.8,65.5,30.00,SSE,149,6.0,10.0,66,0.00,,,0.01,Wunderground v.1.15,2013-05-21 22:49:00,
2013-05-21 18:54:00,77.5,65.2,30.00,South,169,7.0,10.0,66,0.00,,,0.01,Wunderground v.1.15,2013-05-21 22:54:00,
2013-05-21 19:00:00,77.2,65.4,30.00,SSE,167,7.0,7.0,67,0.00,,,0.01,Wunderground v.1.15,2013-05-21 23:00:00,
2013-05-21 19:05:00,77.0,65.2,30.01,SSW,192,5.0,10.0,67,0.00,,,0.01,Wunderground v.1.15,2013-05-21 23:05:00,
2013-05-21 19:11:00,76.9,65.5,30.01,WSW,242,5.0,10.0,68,0.00,,,0.01,Wunderground v.1.15,2013-05-21 23:11:00,
2013-05-21 19:16:00,76.2,66.1,30.01,West,259,5.0,10.0,71,0.00,,,0.01,Wunderground v.1.15,2013-05-21 23:16:00,
2013-05-21 19:21:00,75.1,66.2,30.02,West,273,5.0,10.0,74,0.00,,,0.01,Wunderground v.1.15,2013-05-21 23:21:00,
2013-05-21 19:26:00,74.6,66.5,30.02,West,267,4.0,10.0,76,0.00,,,0.01,Wunderground v.1.15,2013-05-21 23:26:00,
2013-05-21 19:32:00,74.1,66.0,30.02,West,271,2.0,10.0,76,0.00,,,0.01,Wunderground v.1.15,2013-05-21 23:32:00,
2013-05-21 19:37:00,73.7,66.0,30.02,West,271,1.0,10.0,77,0.00,,,0.01,Wunderground v.1.15,2013-05-21 23:37:00,
2013-05-21 19:43:00,73.6,65.9,30.02,South,177,0.0,10.0,77,0.00,,,0.01,Wunderground v.1.15,2013-05-21 23:43:00,
2013-05-21 19:48:00,73.3,66.0,30.03,SSW,195,2.0,10.0,78,0.00,,,0.01,Wunderground v.1.15,2013-05-21 23:48:00,
2013-05-21 19:53:00,73.2,65.9,30.03,South,188,6.0,11.0,78,0.00,,,0.01,Wunderground v.1.15,2013-05-21 23:53:00,
2013-05-21 19:58:00,73.1,65.5,30.03,WSW,254,7.0,11.0,77,0.00,,,0.01,Wunderground v.1.15,2013-05-21 23:58:00,
2013-05-21 20:03:00,72.9,65.6,30.04,SSW,206,6.0,10.0,78,0.00,,,0.01,Wunderground v.1.15,2013-05-22 00:03:00,
2013-05-21 20:09:00,72.8,65.9,30.04,SW,219,5.0,10.0,79,0.00,,,0.01,Wunderground v.1.15,2013-05-22 00:09:00,
2013-05-21 20:14:00,72.4,65.5,30.04,West,280,4.0,10.0,79,0.00,,,0.01,Wunderground v.1.15,2013-05-22 00:14:00,
2013-05-21 20:19:00,71.9,65.0,30.04,West,263,2.0,10.0,79,0.00,,,0.01,Wunderground v.1.15,2013-05-22 00:19:00,
2013-05-21 20:25:00,71.5,65.0,30.04,West,263,2.0,10.0,80,0.00,,,0.01,Wunderground v.1.15,2013-05-22 00:25:00,
2013-05-21 20:30:00,71.1,64.6,30.03,West,263,2.0,10.0,80,0.00,,,0.01,Wunderground v.1.15,2013-05-22 00:30:00,
2013-05-21 20:36:00,70.6,64.5,30.04,West,266,2.0,10.0,81,0.00,,,0.01,Wunderground v.1.15,2013-05-22 00:36:00,
2013-05-21 20:42:00,70.2,64.4,30.04,WSW,256,3.0,10.0,82,0.00,,,0.01,Wunderground v.1.15,2013-05-22 00:42:00,
2013-05-21 20:48:00,69.9,64.2,30.04,SSW,204,2.0,10.0,82,0.00,,,0.01,Wunderground v.1.15,2013-05-22 00:48:00,
2013-05-21 20:53:00,69.7,64.3,30.03,SSW,208,2.0,10.0,83,0.00,,,0.01,Wunderground v.1.15,2013-05-22 00:53:00,
2013-05-21 20:58:00,69.5,64.1,30.03,SW,221,2.0,10.0,83,0.00,,,0.01,Wunderground v.1.15,2013-05-22 00:58:00,
2013-05-21 21:03:00,69.2,64.2,30.03,WSW,257,2.0,10.0,84,0.00,,,0.01,Wunderground v.1.15,2013-05-22 01:03:00,